Airport View

Enter AWOS ICAO identifier for current METAR.

ex. KFNL

KSPF 051245Z AUTO 27006KT 10SM CLR 16/12 A3010 RMK AO2 PWINO

5 Aug 2020 12:48

Frequency: 118.325

Phone: 605-642-8536

Other Area AWOS: KW43 - KRCA - KRAP - KECS

TAF KRCA 051100Z 0511/0617 VRB05KT 9999 FEW100 QNH3001INS BECMG 0522/0523 16010KT 9999 SCT060 QNH2994INS TX29/0521Z TN18/0512Z